sensor_id;sensor_type;location;lat;lon;timestamp;pressure;altitude;pressure_sealevel;temperature;humidity
12471;BME280;36499;46.484;13.832;2023-05-22T00:02:08;93190.94;;;12.12;85.30
12471;BME280;36499;46.484;13.832;2023-05-22T00:04:35;93190.56;;;12.08;85.53
12471;BME280;36499;46.484;13.832;2023-05-22T00:07:02;93178.97;;;12.04;87.26
12471;BME280;36499;46.484;13.832;2023-05-22T00:09:29;93177.88;;;12.12;87.01
12471;BME280;36499;46.484;13.832;2023-05-22T00:11:56;93179.22;;;12.14;86.72
12471;BME280;36499;46.484;13.832;2023-05-22T00:14:23;93178.81;;;12.17;86.90
12471;BME280;36499;46.484;13.832;2023-05-22T00:16:52;93182.44;;;12.16;87.23
12471;BME280;36499;46.484;13.832;2023-05-22T00:19:20;93180.84;;;11.97;88.65
12471;BME280;36499;46.484;13.832;2023-05-22T00:21:48;93181.41;;;11.99;88.74
12471;BME280;36499;46.484;13.832;2023-05-22T00:24:16;93183.47;;;11.97;88.88
12471;BME280;36499;46.484;13.832;2023-05-22T00:26:43;93177.94;;;12.05;88.68
12471;BME280;36499;46.484;13.832;2023-05-22T00:29:10;93178.75;;;12.06;86.40
12471;BME280;36499;46.484;13.832;2023-05-22T00:31:37;93179.84;;;11.98;85.09
12471;BME280;36499;46.484;13.832;2023-05-22T00:34:05;93172.88;;;11.74;87.36
12471;BME280;36499;46.484;13.832;2023-05-22T00:36:32;93178.63;;;11.57;90.28
12471;BME280;36499;46.484;13.832;2023-05-22T00:38:59;93174.13;;;11.65;90.01
12471;BME280;36499;46.484;13.832;2023-05-22T00:41:27;93170.94;;;11.63;90.36
12471;BME280;36499;46.484;13.832;2023-05-22T00:43:54;93169.63;;;11.53;90.05
12471;BME280;36499;46.484;13.832;2023-05-22T00:46:21;93165.38;;;11.59;90.56
12471;BME280;36499;46.484;13.832;2023-05-22T00:48:49;93159.50;;;11.64;90.55
12471;BME280;36499;46.484;13.832;2023-05-22T00:51:20;93162.63;;;11.72;90.33
12471;BME280;36499;46.484;13.832;2023-05-22T00:53:48;93172.88;;;11.74;89.21
12471;BME280;36499;46.484;13.832;2023-05-22T00:56:16;93166.72;;;11.62;90.56
12471;BME280;36499;46.484;13.832;2023-05-22T00:58:44;93165.44;;;11.52;90.54
12471;BME280;36499;46.484;13.832;2023-05-22T01:01:11;93162.22;;;11.50;91.02
12471;BME280;36499;46.484;13.832;2023-05-22T01:03:40;93169.06;;;11.51;90.67
12471;BME280;36499;46.484;13.832;2023-05-22T01:06:10;93168.34;;;11.63;90.35
12471;BME280;36499;46.484;13.832;2023-05-22T01:08:38;93166.66;;;11.68;89.41
12471;BME280;36499;46.484;13.832;2023-05-22T01:11:13;93161.63;;;11.73;89.00
12471;BME280;36499;46.484;13.832;2023-05-22T01:13:53;93158.44;;;11.71;87.84
12471;BME280;36499;46.484;13.832;2023-05-22T01:16:30;93163.03;;;11.69;87.71
12471;BME280;36499;46.484;13.832;2023-05-22T01:19:04;93163.59;;;11.53;88.70
12471;BME280;36499;46.484;13.832;2023-05-22T01:21:45;93161.59;;;11.30;90.62
12471;BME280;36499;46.484;13.832;2023-05-22T01:24:48;93159.91;;;11.42;90.14
12471;BME280;36499;46.484;13.832;2023-05-22T01:28:06;93153.75;;;11.37;90.24
12471;BME280;36499;46.484;13.832;2023-05-22T01:30:49;93155.91;;;11.40;89.96
12471;BME280;36499;46.484;13.832;2023-05-22T01:33:22;93159.31;;;11.40;89.40
12471;BME280;36499;46.484;13.832;2023-05-22T01:35:53;93151.16;;;11.30;90.35
12471;BME280;36499;46.484;13.832;2023-05-22T01:38:23;93151.78;;;11.32;91.00
12471;BME280;36499;46.484;13.832;2023-05-22T01:40:52;93146.19;;;11.29;91.08
12471;BME280;36499;46.484;13.832;2023-05-22T01:43:21;93152.50;;;11.39;90.17
12471;BME280;36499;46.484;13.832;2023-05-22T01:45:49;93159.47;;;11.45;89.48
12471;BME280;36499;46.484;13.832;2023-05-22T01:48:16;93158.28;;;11.41;87.84
12471;BME280;36499;46.484;13.832;2023-05-22T01:50:46;93149.88;;;11.39;88.01
12471;BME280;36499;46.484;13.832;2023-05-22T01:53:20;93148.72;;;11.35;88.97
12471;BME280;36499;46.484;13.832;2023-05-22T01:55:56;93146.81;;;11.24;90.10
12471;BME280;36499;46.484;13.832;2023-05-22T01:58:34;93144.41;;;11.23;90.89
12471;BME280;36499;46.484;13.832;2023-05-22T02:01:07;93145.66;;;11.20;91.04
12471;BME280;36499;46.484;13.832;2023-05-22T02:03:37;93141.22;;;11.21;91.21
12471;BME280;36499;46.484;13.832;2023-05-22T02:06:09;93141.13;;;11.09;90.79
12471;BME280;36499;46.484;13.832;2023-05-22T02:08:41;93141.31;;;11.14;90.94
12471;BME280;36499;46.484;13.832;2023-05-22T02:11:11;93137.88;;;11.14;90.71
12471;BME280;36499;46.484;13.832;2023-05-22T02:13:40;93137.28;;;11.12;90.60
12471;BME280;36499;46.484;13.832;2023-05-22T02:16:08;93141.78;;;11.04;90.93
12471;BME280;36499;46.484;13.832;2023-05-22T02:18:36;93146.34;;;11.09;90.94
12471;BME280;36499;46.484;13.832;2023-05-22T02:21:06;93146.53;;;11.14;89.85
12471;BME280;36499;46.484;13.832;2023-05-22T02:23:34;93143.69;;;11.16;89.40
12471;BME280;36499;46.484;13.832;2023-05-22T02:26:03;93141.06;;;11.16;88.75
12471;BME280;36499;46.484;13.832;2023-05-22T02:28:32;93146.72;;;11.13;88.35
12471;BME280;36499;46.484;13.832;2023-05-22T02:30:59;93147.53;;;11.13;88.89
12471;BME280;36499;46.484;13.832;2023-05-22T02:33:29;93151.75;;;11.14;90.35
12471;BME280;36499;46.484;13.832;2023-05-22T02:35:56;93147.25;;;11.21;89.94
12471;BME280;36499;46.484;13.832;2023-05-22T02:38:23;93149.88;;;11.21;89.23
12471;BME280;36499;46.484;13.832;2023-05-22T02:40:50;93152.91;;;11.18;89.00
12471;BME280;36499;46.484;13.832;2023-05-22T02:43:17;93149.25;;;11.19;88.84
12471;BME280;36499;46.484;13.832;2023-05-22T02:45:44;93154.19;;;11.09;90.01
12471;BME280;36499;46.484;13.832;2023-05-22T02:48:11;93147.31;;;10.90;91.22
12471;BME280;36499;46.484;13.832;2023-05-22T02:50:39;93148.56;;;10.81;92.07
12471;BME280;36499;46.484;13.832;2023-05-22T02:53:08;93146.81;;;10.75;93.38
12471;BME280;36499;46.484;13.832;2023-05-22T02:55:35;93149.75;;;10.85;92.51
12471;BME280;36499;46.484;13.832;2023-05-22T02:58:02;93145.28;;;10.92;92.01
12471;BME280;36499;46.484;13.832;2023-05-22T03:00:30;93144.34;;;10.86;92.43
12471;BME280;36499;46.484;13.832;2023-05-22T03:02:57;93153.59;;;10.82;92.92
12471;BME280;36499;46.484;13.832;2023-05-22T03:05:24;93144.91;;;10.64;93.31
12471;BME280;36499;46.484;13.832;2023-05-22T03:07:53;93143.91;;;10.58;94.40
12471;BME280;36499;46.484;13.832;2023-05-22T03:10:21;93133.47;;;10.65;93.86
12471;BME280;36499;46.484;13.832;2023-05-22T03:12:48;93136.09;;;10.58;94.58
12471;BME280;36499;46.484;13.832;2023-05-22T03:15:16;93139.44;;;10.72;94.17
12471;BME280;36499;46.484;13.832;2023-05-22T03:17:44;93145.50;;;10.90;93.29
12471;BME280;36499;46.484;13.832;2023-05-22T03:20:11;93149.66;;;10.98;92.81
12471;BME280;36499;46.484;13.832;2023-05-22T03:22:41;93141.94;;;10.85;93.14
12471;BME280;36499;46.484;13.832;2023-05-22T03:25:10;93138.19;;;10.74;93.86
12471;BME280;36499;46.484;13.832;2023-05-22T03:27:39;93137.47;;;10.67;94.65
12471;BME280;36499;46.484;13.832;2023-05-22T03:30:07;93143.72;;;10.84;94.20
12471;BME280;36499;46.484;13.832;2023-05-22T03:32:34;93138.00;;;11.00;93.54
12471;BME280;36499;46.484;13.832;2023-05-22T03:35:03;93132.06;;;11.12;92.88
12471;BME280;36499;46.484;13.832;2023-05-22T03:37:30;93137.47;;;11.17;92.28
12471;BME280;36499;46.484;13.832;2023-05-22T03:39:57;93140.00;;;11.23;92.29
12471;BME280;36499;46.484;13.832;2023-05-22T03:42:26;93143.22;;;11.25;91.88
12471;BME280;36499;46.484;13.832;2023-05-22T03:44:53;93127.31;;;11.27;91.84
12471;BME280;36499;46.484;13.832;2023-05-22T03:47:20;93137.56;;;11.28;91.13
12471;BME280;36499;46.484;13.832;2023-05-22T03:49:47;93136.47;;;11.36;91.09
12471;BME280;36499;46.484;13.832;2023-05-22T03:52:14;93141.63;;;11.42;90.09
12471;BME280;36499;46.484;13.832;2023-05-22T03:54:41;93139.38;;;11.46;90.10
12471;BME280;36499;46.484;13.832;2023-05-22T03:57:08;93141.91;;;11.34;90.11
12471;BME280;36499;46.484;13.832;2023-05-22T03:59:36;93144.00;;;11.26;90.82
12471;BME280;36499;46.484;13.832;2023-05-22T04:02:04;93133.03;;;11.17;91.56
12471;BME280;36499;46.484;13.832;2023-05-22T04:04:32;93134.03;;;11.16;90.92
12471;BME280;36499;46.484;13.832;2023-05-22T04:07:03;93139.41;;;11.03;92.07
12471;BME280;36499;46.484;13.832;2023-05-22T04:09:34;93137.25;;;11.18;91.86
12471;BME280;36499;46.484;13.832;2023-05-22T04:12:02;93137.75;;;11.27;91.05
12471;BME280;36499;46.484;13.832;2023-05-22T04:14:29;93139.72;;;11.31;90.60
12471;BME280;36499;46.484;13.832;2023-05-22T04:16:58;93144.41;;;11.23;91.04
12471;BME280;36499;46.484;13.832;2023-05-22T04:19:25;93145.09;;;11.18;91.49
12471;BME280;36499;46.484;13.832;2023-05-22T04:21:56;93135.38;;;11.25;90.54
12471;BME280;36499;46.484;13.832;2023-05-22T04:24:23;93138.34;;;11.29;90.46
12471;BME280;36499;46.484;13.832;2023-05-22T04:26:52;93143.28;;;11.37;89.98
12471;BME280;36499;46.484;13.832;2023-05-22T04:29:19;93142.63;;;11.41;90.15
12471;BME280;36499;46.484;13.832;2023-05-22T04:31:47;93144.59;;;11.46;90.28
12471;BME280;36499;46.484;13.832;2023-05-22T04:34:15;93140.44;;;11.38;90.75
12471;BME280;36499;46.484;13.832;2023-05-22T04:36:43;93135.97;;;11.45;90.54
12471;BME280;36499;46.484;13.832;2023-05-22T04:39:11;93139.75;;;11.49;90.22
12471;BME280;36499;46.484;13.832;2023-05-22T04:41:39;93133.34;;;11.45;91.08
12471;BME280;36499;46.484;13.832;2023-05-22T04:44:06;93144.16;;;11.49;91.28
12471;BME280;36499;46.484;13.832;2023-05-22T04:46:34;93132.13;;;11.48;91.23
12471;BME280;36499;46.484;13.832;2023-05-22T04:49:01;93128.94;;;11.46;91.35
12471;BME280;36499;46.484;13.832;2023-05-22T04:51:30;93125.53;;;11.45;92.26
12471;BME280;36499;46.484;13.832;2023-05-22T04:53:59;93121.69;;;11.48;92.74
12471;BME280;36499;46.484;13.832;2023-05-22T04:56:27;93130.97;;;11.62;92.56
12471;BME280;36499;46.484;13.832;2023-05-22T04:58:54;93129.47;;;11.73;92.33
12471;BME280;36499;46.484;13.832;2023-05-22T05:01:22;93135.00;;;11.83;91.63
12471;BME280;36499;46.484;13.832;2023-05-22T05:03:49;93133.59;;;11.98;91.31
12471;BME280;36499;46.484;13.832;2023-05-22T05:06:16;93127.66;;;12.10;90.56
12471;BME280;36499;46.484;13.832;2023-05-22T05:08:47;93127.75;;;12.15;90.78
12471;BME280;36499;46.484;13.832;2023-05-22T05:11:14;93132.38;;;12.31;90.50
12471;BME280;36499;46.484;13.832;2023-05-22T05:13:41;93132.28;;;12.37;89.78
12471;BME280;36499;46.484;13.832;2023-05-22T05:16:08;93130.00;;;12.59;88.81
12471;BME280;36499;46.484;13.832;2023-05-22T05:18:35;93133.06;;;12.68;88.71
12471;BME280;36499;46.484;13.832;2023-05-22T05:21:03;93120.91;;;12.73;88.19
12471;BME280;36499;46.484;13.832;2023-05-22T05:23:30;93123.66;;;12.90;88.25
12471;BME280;36499;46.484;13.832;2023-05-22T05:25:58;93118.91;;;12.98;87.89
12471;BME280;36499;46.484;13.832;2023-05-22T05:28:25;93112.31;;;13.08;87.82
12471;BME280;36499;46.484;13.832;2023-05-22T05:30:52;93110.88;;;13.23;88.15
12471;BME280;36499;46.484;13.832;2023-05-22T05:33:19;93118.63;;;13.41;87.91
12471;BME280;36499;46.484;13.832;2023-05-22T05:35:46;93112.22;;;13.61;87.36
12471;BME280;36499;46.484;13.832;2023-05-22T05:38:15;93115.50;;;13.79;86.72
12471;BME280;36499;46.484;13.832;2023-05-22T05:40:43;93103.63;;;13.88;86.39
12471;BME280;36499;46.484;13.832;2023-05-22T05:43:11;93109.63;;;14.01;84.85
12471;BME280;36499;46.484;13.832;2023-05-22T05:45:40;93107.06;;;14.17;84.88
12471;BME280;36499;46.484;13.832;2023-05-22T05:48:07;93109.75;;;14.34;83.12
12471;BME280;36499;46.484;13.832;2023-05-22T05:50:34;93106.38;;;14.50;81.92
12471;BME280;36499;46.484;13.832;2023-05-22T05:53:01;93105.28;;;14.63;81.08
12471;BME280;36499;46.484;13.832;2023-05-22T05:55:28;93098.97;;;14.75;80.32
12471;BME280;36499;46.484;13.832;2023-05-22T05:57:56;93102.84;;;14.89;79.52
12471;BME280;36499;46.484;13.832;2023-05-22T06:00:24;93101.59;;;15.09;79.14
12471;BME280;36499;46.484;13.832;2023-05-22T06:02:52;93102.66;;;15.29;78.63
12471;BME280;36499;46.484;13.832;2023-05-22T06:05:19;93094.63;;;15.53;78.26
12471;BME280;36499;46.484;13.832;2023-05-22T06:07:46;93100.66;;;15.70;76.63
12471;BME280;36499;46.484;13.832;2023-05-22T06:10:14;93096.75;;;15.94;76.13
12471;BME280;36499;46.484;13.832;2023-05-22T06:12:41;93095.34;;;16.08;74.55
12471;BME280;36499;46.484;13.832;2023-05-22T06:15:08;93097.91;;;16.25;74.34
12471;BME280;36499;46.484;13.832;2023-05-22T06:17:39;93096.44;;;16.34;73.46
12471;BME280;36499;46.484;13.832;2023-05-22T06:20:07;93097.31;;;16.45;72.38
12471;BME280;36499;46.484;13.832;2023-05-22T06:22:34;93091.00;;;16.67;72.18
12471;BME280;36499;46.484;13.832;2023-05-22T06:25:02;93091.88;;;16.78;69.96
12471;BME280;36499;46.484;13.832;2023-05-22T06:27:30;93089.41;;;16.98;68.92
12471;BME280;36499;46.484;13.832;2023-05-22T06:29:57;93089.31;;;17.15;67.29
12471;BME280;36499;46.484;13.832;2023-05-22T06:32:24;93087.34;;;17.37;66.50
12471;BME280;36499;46.484;13.832;2023-05-22T06:34:53;93085.75;;;17.36;65.52
12471;BME280;36499;46.484;13.832;2023-05-22T06:37:20;93081.38;;;17.52;64.52
12471;BME280;36499;46.484;13.832;2023-05-22T06:39:47;93084.97;;;17.78;64.55
12471;BME280;36499;46.484;13.832;2023-05-22T06:42:14;93079.50;;;17.89;64.02
12471;BME280;36499;46.484;13.832;2023-05-22T06:44:41;93072.69;;;17.98;63.03
12471;BME280;36499;46.484;13.832;2023-05-22T06:47:08;93073.00;;;18.07;62.57
12471;BME280;36499;46.484;13.832;2023-05-22T06:49:35;93074.09;;;18.31;62.55
12471;BME280;36499;46.484;13.832;2023-05-22T06:52:05;93075.16;;;18.30;61.24
12471;BME280;36499;46.484;13.832;2023-05-22T06:54:32;93078.16;;;18.59;62.26
12471;BME280;36499;46.484;13.832;2023-05-22T06:56:59;93070.81;;;18.71;60.87
12471;BME280;36499;46.484;13.832;2023-05-22T06:59:29;93069.75;;;18.92;60.79
12471;BME280;36499;46.484;13.832;2023-05-22T07:01:56;93073.22;;;18.98;60.85
12471;BME280;36499;46.484;13.832;2023-05-22T07:04:23;93078.75;;;19.11;59.50
12471;BME280;36499;46.484;13.832;2023-05-22T07:06:51;93063.16;;;19.20;59.92
12471;BME280;36499;46.484;13.832;2023-05-22T07:09:19;93071.59;;;19.32;59.94
12471;BME280;36499;46.484;13.832;2023-05-22T07:11:46;93071.06;;;19.40;58.84
12471;BME280;36499;46.484;13.832;2023-05-22T07:14:13;93077.16;;;19.46;59.50
12471;BME280;36499;46.484;13.832;2023-05-22T07:16:41;93073.97;;;19.49;59.11
12471;BME280;36499;46.484;13.832;2023-05-22T07:19:08;93067.63;;;19.55;59.27
12471;BME280;36499;46.484;13.832;2023-05-22T07:21:36;93064.69;;;19.72;57.87
12471;BME280;36499;46.484;13.832;2023-05-22T07:24:04;93068.91;;;19.78;57.42
12471;BME280;36499;46.484;13.832;2023-05-22T07:26:35;93067.78;;;19.94;57.79
12471;BME280;36499;46.484;13.832;2023-05-22T07:29:03;93076.56;;;19.84;57.61
12471;BME280;36499;46.484;13.832;2023-05-22T07:31:30;93080.72;;;20.05;58.00
12471;BME280;36499;46.484;13.832;2023-05-22T07:33:59;93081.31;;;19.87;57.21
12471;BME280;36499;46.484;13.832;2023-05-22T07:36:26;93073.91;;;19.89;57.86
12471;BME280;36499;46.484;13.832;2023-05-22T07:38:53;93076.00;;;19.92;57.35
12471;BME280;36499;46.484;13.832;2023-05-22T07:41:20;93072.84;;;19.85;57.67
12471;BME280;36499;46.484;13.832;2023-05-22T07:43:50;93071.81;;;19.71;58.52
12471;BME280;36499;46.484;13.832;2023-05-22T07:46:17;93070.22;;;19.80;58.60
12471;BME280;36499;46.484;13.832;2023-05-22T07:48:44;93074.94;;;19.93;57.98
12471;BME280;36499;46.484;13.832;2023-05-22T07:51:11;93072.31;;;19.88;56.99
12471;BME280;36499;46.484;13.832;2023-05-22T07:53:39;93065.38;;;19.97;57.06
12471;BME280;36499;46.484;13.832;2023-05-22T07:56:06;93066.47;;;19.96;55.80
12471;BME280;36499;46.484;13.832;2023-05-22T07:58:33;93056.38;;;20.08;55.32
12471;BME280;36499;46.484;13.832;2023-05-22T08:01:03;93049.78;;;20.01;55.33
12471;BME280;36499;46.484;13.832;2023-05-22T08:03:30;93054.59;;;19.89;55.96
12471;BME280;36499;46.484;13.832;2023-05-22T08:05:57;93057.19;;;20.04;55.97
12471;BME280;36499;46.484;13.832;2023-05-22T08:08:24;93053.22;;;19.96;56.69
12471;BME280;36499;46.484;13.832;2023-05-22T08:10:51;93048.94;;;20.10;55.80
12471;BME280;36499;46.484;13.832;2023-05-22T08:13:19;93052.13;;;20.02;55.71
12471;BME280;36499;46.484;13.832;2023-05-22T08:15:46;93048.38;;;20.19;54.84
12471;BME280;36499;46.484;13.832;2023-05-22T08:18:14;93042.81;;;20.20;56.24
12471;BME280;36499;46.484;13.832;2023-05-22T08:20:41;93048.69;;;20.07;54.83
12471;BME280;36499;46.484;13.832;2023-05-22T08:23:08;93044.66;;;20.20;56.73
12471;BME280;36499;46.484;13.832;2023-05-22T08:25:35;93043.84;;;20.29;54.94
12471;BME280;36499;46.484;13.832;2023-05-22T08:28:03;93041.41;;;20.38;55.08
12471;BME280;36499;46.484;13.832;2023-05-22T08:30:31;93043.00;;;20.39;54.39
12471;BME280;36499;46.484;13.832;2023-05-22T08:32:58;93026.97;;;20.59;54.29
12471;BME280;36499;46.484;13.832;2023-05-22T08:35:26;93028.16;;;20.82;53.03
12471;BME280;36499;46.484;13.832;2023-05-22T08:37:53;93018.53;;;20.96;52.64
12471;BME280;36499;46.484;13.832;2023-05-22T08:40:21;93015.44;;;21.18;52.94
12471;BME280;36499;46.484;13.832;2023-05-22T08:42:49;93021.91;;;21.01;52.91
12471;BME280;36499;46.484;13.832;2023-05-22T08:45:19;93013.81;;;20.88;52.33
12471;BME280;36499;46.484;13.832;2023-05-22T08:47:54;93011.19;;;21.17;52.15
12471;BME280;36499;46.484;13.832;2023-05-22T08:50:23;93014.31;;;21.24;51.09
12471;BME280;36499;46.484;13.832;2023-05-22T08:52:54;93010.78;;;21.33;51.80
12471;BME280;36499;46.484;13.832;2023-05-22T08:55:24;93014.84;;;21.26;50.92
12471;BME280;36499;46.484;13.832;2023-05-22T08:57:53;93009.19;;;21.03;50.09
12471;BME280;36499;46.484;13.832;2023-05-22T09:00:22;93011.88;;;20.93;49.96
12471;BME280;36499;46.484;13.832;2023-05-22T09:02:49;93003.09;;;21.03;51.49
12471;BME280;36499;46.484;13.832;2023-05-22T09:05:18;93000.13;;;21.04;49.50
12471;BME280;36499;46.484;13.832;2023-05-22T09:07:46;93003.78;;;21.19;48.76
12471;BME280;36499;46.484;13.832;2023-05-22T09:10:15;92998.22;;;21.44;49.01
12471;BME280;36499;46.484;13.832;2023-05-22T09:13:00;92998.78;;;21.88;48.27
12471;BME280;36499;46.484;13.832;2023-05-22T09:15:29;92997.44;;;22.33;47.35
12471;BME280;36499;46.484;13.832;2023-05-22T09:17:56;92993.66;;;22.77;44.16
12471;BME280;36499;46.484;13.832;2023-05-22T09:20:24;92986.09;;;23.16;42.49
12471;BME280;36499;46.484;13.832;2023-05-22T09:22:51;92995.75;;;23.45;42.12
12471;BME280;36499;46.484;13.832;2023-05-22T09:25:20;92989.56;;;23.76;42.26
12471;BME280;36499;46.484;13.832;2023-05-22T09:27:48;92988.66;;;23.67;43.03
12471;BME280;36499;46.484;13.832;2023-05-22T09:30:16;92981.56;;;23.76;44.29
12471;BME280;36499;46.484;13.832;2023-05-22T09:32:43;92988.78;;;24.03;43.14
12471;BME280;36499;46.484;13.832;2023-05-22T09:35:11;92982.41;;;24.40;42.85
12471;BME280;36499;46.484;13.832;2023-05-22T09:37:40;92978.00;;;24.71;42.32
12471;BME280;36499;46.484;13.832;2023-05-22T09:40:10;92983.41;;;24.80;41.29
12471;BME280;36499;46.484;13.832;2023-05-22T09:42:43;92975.63;;;24.70;39.08
12471;BME280;36499;46.484;13.832;2023-05-22T09:45:11;92981.47;;;24.58;40.58
12471;BME280;36499;46.484;13.832;2023-05-22T09:47:38;92984.66;;;24.82;40.67
12471;BME280;36499;46.484;13.832;2023-05-22T09:50:07;92978.72;;;24.99;38.70
12471;BME280;36499;46.484;13.832;2023-05-22T09:52:36;92978.13;;;24.89;40.77
12471;BME280;36499;46.484;13.832;2023-05-22T09:55:06;92980.16;;;24.69;39.65
12471;BME280;36499;46.484;13.832;2023-05-22T09:57:42;92980.94;;;25.06;39.88
12471;BME280;36499;46.484;13.832;2023-05-22T10:00:13;92975.19;;;25.43;38.93
12471;BME280;36499;46.484;13.832;2023-05-22T10:02:46;92971.00;;;25.82;37.95
12471;BME280;36499;46.484;13.832;2023-05-22T10:05:14;92977.09;;;25.73;38.85
12471;BME280;36499;46.484;13.832;2023-05-22T10:07:49;92968.34;;;25.90;40.01
12471;BME280;36499;46.484;13.832;2023-05-22T10:10:24;92970.00;;;26.17;39.02
12471;BME280;36499;46.484;13.832;2023-05-22T10:12:56;92966.91;;;26.32;36.91
12471;BME280;36499;46.484;13.832;2023-05-22T10:15:27;92961.66;;;26.10;40.50
12471;BME280;36499;46.484;13.832;2023-05-22T10:17:55;92964.41;;;25.88;41.74
12471;BME280;36499;46.484;13.832;2023-05-22T10:20:24;92973.13;;;25.62;40.50
12471;BME280;36499;46.484;13.832;2023-05-22T10:22:54;92966.47;;;25.29;39.78
12471;BME280;36499;46.484;13.832;2023-05-22T10:25:22;92976.94;;;24.95;40.82
12471;BME280;36499;46.484;13.832;2023-05-22T10:27:53;92973.13;;;24.73;41.99
12471;BME280;36499;46.484;13.832;2023-05-22T10:30:40;92971.69;;;24.67;41.08
12471;BME280;36499;46.484;13.832;2023-05-22T10:33:16;92970.75;;;24.50;42.24
12471;BME280;36499;46.484;13.832;2023-05-22T10:35:49;92972.97;;;24.20;42.58
12471;BME280;36499;46.484;13.832;2023-05-22T10:38:45;92979.69;;;24.18;43.87
12471;BME280;36499;46.484;13.832;2023-05-22T10:41:16;92958.44;;;24.40;43.95
12471;BME280;36499;46.484;13.832;2023-05-22T10:43:48;92960.56;;;24.88;41.84
12471;BME280;36499;46.484;13.832;2023-05-22T10:46:16;92957.00;;;25.23;41.48
12471;BME280;36499;46.484;13.832;2023-05-22T10:48:45;92957.22;;;25.57;40.12
12471;BME280;36499;46.484;13.832;2023-05-22T10:51:14;92962.22;;;25.90;42.23
12471;BME280;36499;46.484;13.832;2023-05-22T10:53:43;92959.84;;;25.88;40.34
12471;BME280;36499;46.484;13.832;2023-05-22T10:56:12;92957.22;;;25.97;40.97
12471;BME280;36499;46.484;13.832;2023-05-22T10:58:54;92956.44;;;26.05;40.07
12471;BME280;36499;46.484;13.832;2023-05-22T11:01:25;92958.13;;;26.40;40.44
12471;BME280;36499;46.484;13.832;2023-05-22T11:03:57;92948.38;;;26.53;40.12
12471;BME280;36499;46.484;13.832;2023-05-22T11:06:34;92947.09;;;26.67;37.75
12471;BME280;36499;46.484;13.832;2023-05-22T11:09:25;92942.25;;;26.87;37.22
12471;BME280;36499;46.484;13.832;2023-05-22T11:12:15;92943.66;;;27.01;37.78
12471;BME280;36499;46.484;13.832;2023-05-22T11:14:49;92934.38;;;26.99;37.30
12471;BME280;36499;46.484;13.832;2023-05-22T11:17:18;92938.03;;;26.86;36.93
12471;BME280;36499;46.484;13.832;2023-05-22T11:20:02;92930.44;;;27.05;38.63
12471;BME280;36499;46.484;13.832;2023-05-22T11:22:33;92928.84;;;27.04;36.66
12471;BME280;36499;46.484;13.832;2023-05-22T11:25:06;92928.69;;;27.09;36.86
12471;BME280;36499;46.484;13.832;2023-05-22T11:27:34;92939.34;;;27.35;37.34
12471;BME280;36499;46.484;13.832;2023-05-22T11:30:04;92934.94;;;27.39;35.68
12471;BME280;36499;46.484;13.832;2023-05-22T11:32:35;92924.22;;;27.30;36.37
12471;BME280;36499;46.484;13.832;2023-05-22T11:35:02;92917.41;;;27.41;36.48
12471;BME280;36499;46.484;13.832;2023-05-22T11:37:30;92916.00;;;27.52;34.98
12471;BME280;36499;46.484;13.832;2023-05-22T11:40:01;92913.44;;;27.64;36.63
12471;BME280;36499;46.484;13.832;2023-05-22T11:42:30;92913.47;;;27.85;35.68
12471;BME280;36499;46.484;13.832;2023-05-22T11:44:58;92905.28;;;27.82;36.56
12471;BME280;36499;46.484;13.832;2023-05-22T11:47:27;92908.34;;;28.01;36.55
12471;BME280;36499;46.484;13.832;2023-05-22T11:49:56;92905.34;;;27.73;36.99
12471;BME280;36499;46.484;13.832;2023-05-22T11:52:24;92898.41;;;27.72;37.54
12471;BME280;36499;46.484;13.832;2023-05-22T11:54:51;92904.88;;;27.71;35.60
12471;BME280;36499;46.484;13.832;2023-05-22T11:57:19;92903.03;;;27.63;34.78
12471;BME280;36499;46.484;13.832;2023-05-22T11:59:47;92898.31;;;27.89;35.44
12471;BME280;36499;46.484;13.832;2023-05-22T12:02:15;92889.00;;;27.95;35.36
12471;BME280;36499;46.484;13.832;2023-05-22T12:04:44;92893.34;;;28.08;34.77
12471;BME280;36499;46.484;13.832;2023-05-22T12:07:11;92879.88;;;28.17;32.56
12471;BME280;36499;46.484;13.832;2023-05-22T12:09:40;92876.75;;;28.36;33.01
12471;BME280;36499;46.484;13.832;2023-05-22T12:12:08;92872.78;;;28.42;32.72
12471;BME280;36499;46.484;13.832;2023-05-22T12:14:42;92875.06;;;28.52;34.09
12471;BME280;36499;46.484;13.832;2023-05-22T12:17:11;92864.97;;;28.70;33.71
12471;BME280;36499;46.484;13.832;2023-05-22T12:19:39;92862.75;;;28.72;34.35
12471;BME280;36499;46.484;13.832;2023-05-22T12:22:08;92861.31;;;28.53;33.93
12471;BME280;36499;46.484;13.832;2023-05-22T12:24:39;92869.38;;;28.53;33.66
12471;BME280;36499;46.484;13.832;2023-05-22T12:27:08;92860.78;;;28.60;31.75
12471;BME280;36499;46.484;13.832;2023-05-22T12:29:35;92860.13;;;28.63;32.28
12471;BME280;36499;46.484;13.832;2023-05-22T12:32:06;92864.31;;;28.73;34.26
12471;BME280;36499;46.484;13.832;2023-05-22T12:34:42;92861.22;;;28.83;33.22
12471;BME280;36499;46.484;13.832;2023-05-22T12:37:18;92854.53;;;28.89;32.66
12471;BME280;36499;46.484;13.832;2023-05-22T12:39:54;92855.59;;;29.08;32.00
12471;BME280;36499;46.484;13.832;2023-05-22T12:42:22;92850.03;;;29.26;33.11
12471;BME280;36499;46.484;13.832;2023-05-22T12:44:52;92847.69;;;29.24;34.28
12471;BME280;36499;46.484;13.832;2023-05-22T12:47:20;92857.34;;;29.37;32.29
12471;BME280;36499;46.484;13.832;2023-05-22T12:49:47;92852.31;;;29.36;30.00
12471;BME280;36499;46.484;13.832;2023-05-22T12:52:14;92855.81;;;29.48;32.47
12471;BME280;36499;46.484;13.832;2023-05-22T12:54:42;92851.94;;;29.25;30.48
12471;BME280;36499;46.484;13.832;2023-05-22T12:57:10;92849.50;;;28.87;29.50
12471;BME280;36499;46.484;13.832;2023-05-22T12:59:37;92855.03;;;28.49;32.37
12471;BME280;36499;46.484;13.832;2023-05-22T13:02:04;92856.72;;;28.54;33.03